createdAt,value
2022-11-15T00:01:31.073Z,11.30
2022-11-15T00:04:16.992Z,11.31
2022-11-15T00:07:02.133Z,11.40
2022-11-15T00:09:47.705Z,11.32
2022-11-15T00:12:33.081Z,11.26
2022-11-15T00:15:18.305Z,11.05
2022-11-15T00:18:05.100Z,11.02
2022-11-15T00:20:50.545Z,10.99
2022-11-15T00:23:35.743Z,11.25
2022-11-15T00:26:21.190Z,11.30
2022-11-15T00:29:06.454Z,11.28
2022-11-15T00:31:51.751Z,11.38
2022-11-15T00:34:37.197Z,11.51
2022-11-15T00:37:22.657Z,11.71
2022-11-15T00:40:08.793Z,11.77
2022-11-15T00:42:53.761Z,11.80
2022-11-15T00:45:38.928Z,11.81
2022-11-15T00:48:24.343Z,11.80
2022-11-15T00:51:09.670Z,11.73
2022-11-15T00:53:54.819Z,11.73
2022-11-15T00:56:39.778Z,11.76
2022-11-15T00:59:26.017Z,11.77
2022-11-15T01:02:10.896Z,11.86
2022-11-15T01:04:56.236Z,11.95
2022-11-15T01:07:41.551Z,11.94
2022-11-15T01:10:26.778Z,11.92
2022-11-15T01:13:12.412Z,11.87
2022-11-15T01:15:57.819Z,11.84
2022-11-15T01:18:43.384Z,11.85
2022-11-15T01:21:28.335Z,11.97
2022-11-15T01:24:14.123Z,12.11
2022-11-15T01:26:59.412Z,12.27
2022-11-15T01:29:44.755Z,12.35
2022-11-15T01:32:30.109Z,12.38
2022-11-15T01:35:15.070Z,12.33
2022-11-15T01:38:00.582Z,12.32
2022-11-15T01:40:45.753Z,12.44
2022-11-15T01:43:36.753Z,12.45
2022-11-15T01:46:30.438Z,12.53
2022-11-15T01:49:18.611Z,12.59
2022-11-15T01:52:07.999Z,12.68
2022-11-15T01:54:59.912Z,12.67
2022-11-15T01:57:49.819Z,12.64
2022-11-15T02:00:35.625Z,12.66
2022-11-15T02:03:26.091Z,12.64
2022-11-15T02:06:11.490Z,12.70
2022-11-15T02:08:57.740Z,12.79
2022-11-15T02:11:44.766Z,12.83
2022-11-15T02:14:32.039Z,12.85
2022-11-15T02:17:29.178Z,12.82
2022-11-15T02:20:45.081Z,12.86
2022-11-15T02:24:00.941Z,12.97
2022-11-15T02:27:24.044Z,13.02
2022-11-15T02:30:47.667Z,13.06
2022-11-15T02:33:42.194Z,13.10
2022-11-15T02:36:35.961Z,13.18
2022-11-15T02:39:29.947Z,13.18
2022-11-15T02:42:47.672Z,13.19
2022-11-15T02:45:40.111Z,13.21
2022-11-15T02:48:26.996Z,13.15
2022-11-15T02:51:13.700Z,13.05
2022-11-15T02:53:59.265Z,13.18
2022-11-15T02:56:46.637Z,13.19
2022-11-15T03:00:09.352Z,13.27
2022-11-15T03:03:13.360Z,13.20
2022-11-15T03:06:26.391Z,13.18
2022-11-15T03:09:39.461Z,13.32
2022-11-15T03:12:39.937Z,13.35
2022-11-15T03:15:32.268Z,13.26
2022-11-15T03:18:43.662Z,13.25
2022-11-15T03:21:31.193Z,13.36
2022-11-15T03:24:23.297Z,13.31
2022-11-15T03:27:16.343Z,13.33
2022-11-15T03:30:04.870Z,13.37
2022-11-15T03:32:58.963Z,13.47
2022-11-15T03:35:45.809Z,13.55
2022-11-15T03:38:35.098Z,13.55
2022-11-15T03:41:29.371Z,13.62
2022-11-15T03:44:35.403Z,13.59
2022-11-15T03:47:24.593Z,13.57
2022-11-15T03:50:13.984Z,13.63
2022-11-15T03:52:59.905Z,13.60
2022-11-15T03:55:45.037Z,13.61
2022-11-15T03:58:30.450Z,13.68
2022-11-15T04:01:15.862Z,13.71
2022-11-15T04:04:01.083Z,13.74
2022-11-15T04:06:46.436Z,13.87
2022-11-15T04:09:31.584Z,13.87
2022-11-15T04:12:31.483Z,13.86
2022-11-15T04:15:19.529Z,13.78
2022-11-15T04:18:04.832Z,13.74
2022-11-15T04:21:08.625Z,13.84
2022-11-15T04:23:54.019Z,13.86
2022-11-15T04:26:39.274Z,13.94
2022-11-15T04:29:36.946Z,13.99
2022-11-15T04:32:22.225Z,14.01
2022-11-15T04:35:07.961Z,14.00
2022-11-15T04:37:53.311Z,13.97
2022-11-15T04:40:38.952Z,14.01
2022-11-15T04:43:24.215Z,14.01
2022-11-15T04:46:09.621Z,13.96
2022-11-15T04:48:58.875Z,13.86
2022-11-15T04:51:44.808Z,13.82
2022-11-15T04:54:30.334Z,13.83
2022-11-15T04:57:15.705Z,13.77
2022-11-15T05:00:01.305Z,13.88
2022-11-15T05:03:05.327Z,13.90
2022-11-15T05:05:50.646Z,13.86
2022-11-15T05:08:35.888Z,13.90
2022-11-15T05:11:21.471Z,13.96
2022-11-15T05:14:06.661Z,13.98
2022-11-15T05:16:51.774Z,14.01
2022-11-15T05:19:37.918Z,14.01
2022-11-15T05:22:23.969Z,14.11
2022-11-15T05:25:09.581Z,14.24
2022-11-15T05:27:55.072Z,14.24
2022-11-15T05:30:40.488Z,14.25
2022-11-15T05:33:25.714Z,14.23
2022-11-15T05:36:15.178Z,14.24
2022-11-15T05:39:00.517Z,14.23
2022-11-15T05:41:54.532Z,14.19
2022-11-15T05:44:44.025Z,14.12
2022-11-15T05:47:31.062Z,14.08
2022-11-15T05:50:19.302Z,14.13
2022-11-15T05:53:05.530Z,14.22
2022-11-15T05:55:50.819Z,14.19
2022-11-15T05:58:37.709Z,14.14
2022-11-15T06:01:23.545Z,14.09
2022-11-15T06:04:09.415Z,13.94
2022-11-15T06:06:55.006Z,13.95
2022-11-15T06:09:40.124Z,13.88
2022-11-15T06:12:25.288Z,13.89
2022-11-15T06:15:10.689Z,13.90
2022-11-15T06:17:58.874Z,13.93
2022-11-15T06:20:44.256Z,13.90
2022-11-15T06:23:33.424Z,13.85
2022-11-15T06:26:18.744Z,13.78
2022-11-15T06:29:05.364Z,13.73
2022-11-15T06:31:50.441Z,13.70
2022-11-15T06:34:36.769Z,13.72
2022-11-15T06:37:22.042Z,13.84
2022-11-15T06:40:09.401Z,13.90
2022-11-15T06:42:59.192Z,13.97
2022-11-15T06:45:44.402Z,13.88
2022-11-15T06:48:31.430Z,13.83
2022-11-15T06:51:16.779Z,13.84
2022-11-15T06:54:01.922Z,13.83
2022-11-15T06:56:47.316Z,13.88
2022-11-15T06:59:36.396Z,13.94
2022-11-15T07:02:26.081Z,13.98
2022-11-15T07:05:11.775Z,13.94
2022-11-15T07:07:58.454Z,13.99
2022-11-15T07:10:43.583Z,13.89
2022-11-15T07:13:30.532Z,13.92
2022-11-15T07:16:16.350Z,13.90
2022-11-15T07:19:02.126Z,13.86
2022-11-15T07:21:47.650Z,13.93
2022-11-15T07:24:33.135Z,13.97
2022-11-15T07:27:18.662Z,14.00
2022-11-15T07:30:05.821Z,14.03
2022-11-15T07:32:58.925Z,14.09
2022-11-15T07:35:44.594Z,14.09
2022-11-15T07:38:30.893Z,14.09
2022-11-15T07:41:15.808Z,14.12
2022-11-15T07:44:01.282Z,14.13
2022-11-15T07:46:46.804Z,14.07
2022-11-15T07:49:32.254Z,14.11
2022-11-15T07:52:17.303Z,14.08
2022-11-15T07:55:02.387Z,14.11
2022-11-15T07:57:47.548Z,14.14
2022-11-15T08:00:33.232Z,14.11
2022-11-15T08:03:18.490Z,14.15
2022-11-15T08:06:03.959Z,14.12
2022-11-15T08:08:49.295Z,14.09
2022-11-15T08:11:34.651Z,14.10
2022-11-15T08:14:22.310Z,14.05
2022-11-15T08:17:07.920Z,13.99
2022-11-15T08:19:53.235Z,14.04
2022-11-15T08:22:38.685Z,14.18
2022-11-15T08:25:27.209Z,14.10
2022-11-15T08:28:12.805Z,14.18
2022-11-15T08:30:58.351Z,14.24
2022-11-15T08:33:43.479Z,14.22
2022-11-15T08:36:36.892Z,14.31
2022-11-15T08:39:27.044Z,14.23
2022-11-15T08:42:16.986Z,14.14
2022-11-15T08:45:05.565Z,14.25
2022-11-15T08:47:54.183Z,14.28
2022-11-15T08:50:40.265Z,14.16
2022-11-15T08:53:26.018Z,13.99
2022-11-15T08:56:14.761Z,14.07
2022-11-15T08:58:59.637Z,13.92
2022-11-15T09:01:45.014Z,13.83
2022-11-15T09:04:30.772Z,13.79
2022-11-15T09:07:16.553Z,13.82
2022-11-15T09:10:01.978Z,13.87
2022-11-15T09:12:49.346Z,13.73
2022-11-15T09:15:35.144Z,13.71
2022-11-15T09:18:23.155Z,13.80
2022-11-15T09:21:08.868Z,13.87
2022-11-15T09:23:54.170Z,13.97
2022-11-15T09:26:39.650Z,14.04
2022-11-15T09:29:24.685Z,14.08
2022-11-15T09:32:10.436Z,14.07
2022-11-15T09:34:55.508Z,13.89
2022-11-15T09:37:40.784Z,13.90
2022-11-15T09:40:27.170Z,14.05
2022-11-15T09:43:27.770Z,14.16
2022-11-15T09:46:22.650Z,14.24
2022-11-15T09:49:10.119Z,14.27
2022-11-15T09:51:53.249Z,14.30
2022-11-15T09:54:52.354Z,14.27
2022-11-15T09:57:22.310Z,14.46
2022-11-15T10:00:12.260Z,14.65
2022-11-15T10:03:07.915Z,14.65
2022-11-15T10:05:43.351Z,14.69
2022-11-15T10:08:35.815Z,14.53
2022-11-15T10:13:56.236Z,14.29
2022-11-15T10:16:43.056Z,14.33
2022-11-15T10:19:22.116Z,14.36
2022-11-15T10:22:00.334Z,14.52
2022-11-15T10:24:29.507Z,14.46
2022-11-15T10:26:57.453Z,14.41
2022-11-15T10:29:27.218Z,14.41
2022-11-15T10:31:54.183Z,14.40
2022-11-15T10:34:23.703Z,14.48
2022-11-15T10:37:02.886Z,14.70
2022-11-15T10:39:29.893Z,14.86
2022-11-15T10:41:57.890Z,14.70
2022-11-15T10:44:28.832Z,14.60
2022-11-15T10:46:55.412Z,14.78
2022-11-15T10:49:29.615Z,14.87
2022-11-15T10:52:17.567Z,14.88
2022-11-15T10:54:47.168Z,14.96
2022-11-15T10:57:23.516Z,15.03
2022-11-15T10:59:53.313Z,15.07
2022-11-15T11:02:34.929Z,15.05
2022-11-15T11:05:05.230Z,15.09
2022-11-15T11:07:35.063Z,15.08
2022-11-15T11:10:09.790Z,15.01
2022-11-15T11:12:49.576Z,15.00
2022-11-15T11:15:17.956Z,14.98
2022-11-15T11:17:53.667Z,14.96
2022-11-15T11:20:31.003Z,14.95
2022-11-15T11:23:16.509Z,14.85
2022-11-15T11:26:09.409Z,15.02
2022-11-15T11:28:54.814Z,15.16
2022-11-15T11:31:24.394Z,14.91
2022-11-15T11:34:13.071Z,14.88
2022-11-15T11:36:59.008Z,14.97
2022-11-15T11:39:32.785Z,15.00
2022-11-15T11:42:24.446Z,15.03
2022-11-15T11:45:03.710Z,15.02
2022-11-15T11:47:48.535Z,15.13
2022-11-15T11:50:20.398Z,15.22
2022-11-15T11:53:05.102Z,15.18
2022-11-15T11:55:43.712Z,15.11
2022-11-15T11:58:49.069Z,15.14
2022-11-15T12:01:25.677Z,15.12
2022-11-15T12:03:58.099Z,15.20
2022-11-15T12:06:47.584Z,15.28
2022-11-15T12:09:21.703Z,15.27
2022-11-15T12:12:10.426Z,15.30
2022-11-15T12:14:59.452Z,15.19
2022-11-15T12:17:46.853Z,15.27
2022-11-15T12:20:19.895Z,15.20
2022-11-15T12:23:13.662Z,15.05
2022-11-15T12:25:55.600Z,15.18
2022-11-15T12:28:36.626Z,15.20
2022-11-15T12:31:32.451Z,15.45
2022-11-15T12:34:04.295Z,15.41
2022-11-15T12:36:52.501Z,15.41
2022-11-15T12:39:20.360Z,15.28
2022-11-15T12:41:55.954Z,15.03
2022-11-15T12:44:32.062Z,15.30
2022-11-15T12:46:58.567Z,15.11
2022-11-15T12:49:28.571Z,15.24
2022-11-15T12:52:01.432Z,15.21
2022-11-15T12:54:30.248Z,15.36
2022-11-15T12:57:08.897Z,15.48
2022-11-15T12:59:56.161Z,15.50
2022-11-15T13:02:28.845Z,15.57
2022-11-15T13:05:15.547Z,15.58
2022-11-15T13:07:42.035Z,15.65
2022-11-15T13:10:14.496Z,15.64
2022-11-15T13:12:46.978Z,15.63
2022-11-15T13:15:13.513Z,15.68
2022-11-15T13:17:50.033Z,15.57
2022-11-15T13:20:21.942Z,15.51
2022-11-15T13:23:04.708Z,15.43
2022-11-15T13:26:00.974Z,15.37
2022-11-15T13:28:33.672Z,15.51
2022-11-15T13:31:04.075Z,15.59
2022-11-15T13:33:39.798Z,15.58
2022-11-15T13:36:13.448Z,15.63
2022-11-15T13:38:41.944Z,15.68
2022-11-15T13:41:17.683Z,15.60
2022-11-15T13:43:44.838Z,15.45
2022-11-15T13:46:18.151Z,15.47
2022-11-15T13:48:48.180Z,15.45
2022-11-15T13:51:18.008Z,15.44
2022-11-15T13:53:49.852Z,15.42
2022-11-15T13:56:19.714Z,15.39
2022-11-15T13:58:47.245Z,15.36
2022-11-15T14:01:20.471Z,15.36
2022-11-15T14:03:57.419Z,15.34
2022-11-15T14:06:28.097Z,15.31
2022-11-15T14:09:10.189Z,15.50
2022-11-15T14:11:37.497Z,15.62
2022-11-15T14:14:14.107Z,15.45
2022-11-15T14:16:49.616Z,15.51
2022-11-15T14:19:22.326Z,15.47
2022-11-15T14:22:14.553Z,15.45
2022-11-15T14:24:44.642Z,15.41
2022-11-15T14:27:23.464Z,15.42
2022-11-15T14:29:50.393Z,15.31
2022-11-15T14:32:20.726Z,15.30
2022-11-15T14:34:49.304Z,15.22
2022-11-15T14:37:25.357Z,15.40
2022-11-15T14:39:52.973Z,15.49
2022-11-15T14:42:20.565Z,15.49
2022-11-15T14:44:47.595Z,15.43
2022-11-15T14:47:14.889Z,15.42
2022-11-15T14:49:41.863Z,15.37
2022-11-15T14:52:30.388Z,15.34
2022-11-15T14:55:00.048Z,15.33
2022-11-15T14:57:26.737Z,15.36
2022-11-15T14:59:53.759Z,15.47
2022-11-15T15:02:25.819Z,15.51
2022-11-15T15:04:53.065Z,15.56
2022-11-15T15:07:19.707Z,15.49
2022-11-15T15:09:47.109Z,15.41
2022-11-15T15:12:22.044Z,15.36
2022-11-15T15:14:50.448Z,15.40
2022-11-15T15:17:18.172Z,15.41
2022-11-15T15:19:44.953Z,15.50
2022-11-15T15:22:16.354Z,15.35
2022-11-15T15:24:44.150Z,15.29
2022-11-15T15:27:11.387Z,15.37
2022-11-15T15:29:38.240Z,15.53
2022-11-15T15:32:05.641Z,15.51
2022-11-15T15:34:33.044Z,15.55
2022-11-15T15:37:09.858Z,15.45
2022-11-15T15:39:36.490Z,15.43
2022-11-15T15:42:04.822Z,15.42
2022-11-15T15:44:31.391Z,15.26
2022-11-15T15:46:58.794Z,15.22
2022-11-15T15:49:25.431Z,15.19
2022-11-15T15:51:52.056Z,15.16
2022-11-15T15:54:18.639Z,15.16
2022-11-15T15:56:45.174Z,15.14
2022-11-15T15:59:11.718Z,15.15
2022-11-15T16:01:38.342Z,15.25
2022-11-15T16:04:04.968Z,15.27
2022-11-15T16:06:39.978Z,15.18
2022-11-15T16:09:16.010Z,15.17
2022-11-15T16:11:45.377Z,15.21
2022-11-15T16:14:11.868Z,15.16
2022-11-15T16:16:39.040Z,15.26
2022-11-15T16:19:06.032Z,15.18
2022-11-15T16:21:32.683Z,15.18
2022-11-15T16:23:59.381Z,15.19
2022-11-15T16:26:30.726Z,15.23
2022-11-15T16:28:57.253Z,15.34
2022-11-15T16:31:23.775Z,15.30
2022-11-15T16:33:50.341Z,15.22
2022-11-15T16:36:30.015Z,15.13
2022-11-15T16:38:58.155Z,15.24
2022-11-15T16:41:24.945Z,15.28
2022-11-15T16:43:51.704Z,15.29
2022-11-15T16:46:26.211Z,15.35
2022-11-15T16:48:56.083Z,15.44
2022-11-15T16:51:23.632Z,15.39
2022-11-15T16:53:50.418Z,15.35
2022-11-15T16:56:28.457Z,15.26
2022-11-15T16:58:58.358Z,15.11
2022-11-15T17:01:46.534Z,15.10
2022-11-15T17:04:13.711Z,15.26
2022-11-15T17:06:41.278Z,15.16
2022-11-15T17:09:23.544Z,15.24
2022-11-15T17:11:50.740Z,15.19
2022-11-15T17:14:17.710Z,15.22
2022-11-15T17:16:44.995Z,15.23
2022-11-15T17:19:16.136Z,15.22
2022-11-15T17:21:44.090Z,15.22
2022-11-15T17:24:11.611Z,15.16
2022-11-15T17:26:40.763Z,15.19
2022-11-15T17:29:07.964Z,15.31
2022-11-15T17:31:38.342Z,15.38
2022-11-15T17:34:06.793Z,15.37
2022-11-15T17:36:34.115Z,15.44
2022-11-15T17:39:00.701Z,15.24
2022-11-15T17:41:28.613Z,15.24
2022-11-15T17:43:59.884Z,15.22
2022-11-15T17:46:28.165Z,15.19
2022-11-15T17:48:55.863Z,15.21
2022-11-15T17:51:23.928Z,15.18
2022-11-15T17:53:51.362Z,15.19
2022-11-15T17:56:23.421Z,15.26
2022-11-15T17:59:13.695Z,15.26
2022-11-15T18:01:41.772Z,15.34
2022-11-15T18:04:09.986Z,15.31
2022-11-15T18:06:37.060Z,15.21
2022-11-15T18:09:04.890Z,15.31
2022-11-15T18:11:41.073Z,15.36
2022-11-15T18:14:12.295Z,15.30
2022-11-15T18:16:40.161Z,15.36
2022-11-15T18:19:11.361Z,15.38
2022-11-15T18:21:56.328Z,15.27
2022-11-15T18:24:29.583Z,15.22
2022-11-15T18:26:57.577Z,15.29
2022-11-15T18:29:24.879Z,15.32
2022-11-15T18:31:55.540Z,15.30
2022-11-15T18:34:24.350Z,15.34
2022-11-15T18:36:52.829Z,15.41
2022-11-15T18:39:20.325Z,15.33
2022-11-15T18:41:48.119Z,15.30
2022-11-15T18:44:15.933Z,15.37
2022-11-15T18:46:44.836Z,15.51
2022-11-15T18:49:14.024Z,15.51
2022-11-15T18:51:41.894Z,15.57
2022-11-15T18:54:10.948Z,15.55
2022-11-15T18:56:37.821Z,15.53
2022-11-15T18:59:05.375Z,15.51
2022-11-15T19:01:34.639Z,15.52
2022-11-15T19:04:08.048Z,15.47
2022-11-15T19:06:41.437Z,15.47
2022-11-15T19:09:09.359Z,15.51
2022-11-15T19:11:39.297Z,15.55
2022-11-15T19:14:14.249Z,15.49
2022-11-15T19:16:44.704Z,15.46
2022-11-15T19:19:16.639Z,15.54
2022-11-15T19:21:44.010Z,15.50
2022-11-15T19:24:10.614Z,15.48
2022-11-15T19:26:37.875Z,15.53
2022-11-15T19:29:06.109Z,15.55
2022-11-15T19:31:33.762Z,15.54
2022-11-15T19:34:04.327Z,15.66
2022-11-15T19:36:36.740Z,15.70
2022-11-15T19:39:08.265Z,15.71
2022-11-15T19:41:36.371Z,15.70
2022-11-15T19:44:03.283Z,15.67
2022-11-15T19:46:29.939Z,15.78
2022-11-15T19:48:56.438Z,15.79
2022-11-15T19:51:25.445Z,15.79
2022-11-15T19:53:53.519Z,15.72
2022-11-15T19:56:21.473Z,15.77
2022-11-15T19:58:53.325Z,15.79
2022-11-15T20:01:25.912Z,15.72
2022-11-15T20:03:54.734Z,15.70
2022-11-15T20:06:25.118Z,15.65
2022-11-15T20:08:52.228Z,15.50
2022-11-15T20:11:19.599Z,15.54
2022-11-15T20:13:46.720Z,15.47
2022-11-15T20:16:19.338Z,15.49
2022-11-15T20:18:46.817Z,15.50
2022-11-15T20:21:13.751Z,15.52
2022-11-15T20:23:40.580Z,15.40
2022-11-15T20:26:08.506Z,15.29
2022-11-15T20:28:37.405Z,15.33
2022-11-15T20:31:04.673Z,15.29
2022-11-15T20:33:31.754Z,15.25
2022-11-15T20:35:58.376Z,15.31
2022-11-15T20:38:24.926Z,15.33
2022-11-15T20:40:57.403Z,15.34
2022-11-15T20:43:26.954Z,15.22
2022-11-15T20:45:53.557Z,15.11
2022-11-15T20:48:20.401Z,15.10
2022-11-15T20:50:47.328Z,15.07
2022-11-15T20:53:16.828Z,15.19
2022-11-15T20:55:47.617Z,15.23
2022-11-15T20:58:15.954Z,15.12
2022-11-15T21:00:44.654Z,15.16
2022-11-15T21:03:13.436Z,15.17
2022-11-15T21:05:43.876Z,15.14
2022-11-15T21:08:12.295Z,15.14
2022-11-15T21:10:59.203Z,15.08
2022-11-15T21:13:26.672Z,15.05
2022-11-15T21:15:57.828Z,15.11
2022-11-15T21:18:24.971Z,15.14
2022-11-15T21:20:52.120Z,15.17
2022-11-15T21:23:18.685Z,15.18
2022-11-15T21:25:50.618Z,15.16
2022-11-15T21:28:17.880Z,15.18
2022-11-15T21:30:58.723Z,15.17
2022-11-15T21:33:27.506Z,15.09
2022-11-15T21:35:55.237Z,15.08
2022-11-15T21:38:26.179Z,15.18
2022-11-15T21:40:53.594Z,15.16
2022-11-15T21:43:20.978Z,15.21
2022-11-15T21:46:04.973Z,15.16
2022-11-15T21:48:34.435Z,15.23
2022-11-15T21:51:05.175Z,15.24
2022-11-15T21:53:32.568Z,15.02
2022-11-15T21:56:00.394Z,14.93
2022-11-15T21:58:27.544Z,15.08
2022-11-15T22:01:14.263Z,15.09
2022-11-15T22:03:42.272Z,15.13
2022-11-15T22:06:14.331Z,15.10
2022-11-15T22:08:44.910Z,15.02
2022-11-15T22:11:11.608Z,15.00
2022-11-15T22:13:38.457Z,15.11
2022-11-15T22:16:05.458Z,15.09
2022-11-15T22:18:32.312Z,15.15
2022-11-15T22:21:05.006Z,15.10
2022-11-15T22:23:33.478Z,15.05
2022-11-15T22:26:00.308Z,15.01
2022-11-15T22:28:26.900Z,15.03
2022-11-15T22:30:54.777Z,15.05
2022-11-15T22:33:23.675Z,15.08
2022-11-15T22:35:50.570Z,15.05
2022-11-15T22:38:17.384Z,15.10
2022-11-15T22:40:44.168Z,15.04
2022-11-15T22:43:13.345Z,15.03
2022-11-15T22:45:49.564Z,15.01
2022-11-15T22:48:16.961Z,15.03
2022-11-15T22:50:44.244Z,15.08
2022-11-15T22:53:11.391Z,15.06
2022-11-15T22:55:40.095Z,15.03
2022-11-15T22:58:08.569Z,14.94
2022-11-15T23:00:36.011Z,14.82
2022-11-15T23:03:02.871Z,14.78
2022-11-15T23:05:29.613Z,14.88
2022-11-15T23:07:56.184Z,14.81
2022-11-15T23:10:41.118Z,14.84
2022-11-15T23:13:16.103Z,14.86
2022-11-15T23:16:08.664Z,14.87
2022-11-15T23:18:43.367Z,14.79
2022-11-15T23:21:42.010Z,14.77
2022-11-15T23:24:11.010Z,14.79
2022-11-15T23:26:38.289Z,14.75
2022-11-15T23:29:06.445Z,14.69
2022-11-15T23:32:01.140Z,14.71
2022-11-15T23:34:30.468Z,14.70
2022-11-15T23:36:57.116Z,14.68
2022-11-15T23:39:23.780Z,14.60
2022-11-15T23:41:50.371Z,14.61
2022-11-15T23:44:17.075Z,14.61
2022-11-15T23:46:43.613Z,14.57
2022-11-15T23:49:10.482Z,14.48
2022-11-15T23:51:37.017Z,14.33
2022-11-15T23:54:03.707Z,14.28
2022-11-15T23:56:30.311Z,14.29
2022-11-15T23:58:56.872Z,14.44
